<?xml version="1.0" encoding="UTF-8"?>
<gpx xmlns="http://www.topografix.com/GPX/1/1" creator="GPSies http://www.gpsies.com - TF Am Negro(RW)" version="1.1" xmlns:xsi="http://www.w3.org/2001/XMLSchema-instance" xsi:schemaLocation="http://www.topografix.com/GPX/1/1 http://www.topografix.com/GPX/1/1/gpx.xsd">
  <metadata>
    <name>TF Am Negro(RW)</name>
    <copyright author="GPSies.com" />
    <link href="http://www.gpsies.com/map.do?fileId=ujvfjsqouqtjcdin">
      <text>TF Am Negro(RW) on GPSies.com</text>
    </link>
    <time>2009-09-22T11:44:25Z</time>
  </metadata>
  <trk>
    <name>TF Am Negro(RW) on GPSies.com</name>
    <link href="http://www.gpsies.com/map.do?fileId=ujvfjsqouqtjcdin" />
    <trkseg>
      <trkpt lat="28.31701660" lon="-16.7928943">
        <ele>1171.0000</ele>
        <time>2009-09-22T11:44:25Z</time>
      </trkpt>
      <trkpt lat="28.31648250" lon="-16.7928581">
        <ele>1171.0000</ele>
        <time>2009-09-22T11:44:46Z</time>
      </trkpt>
      <trkpt lat="28.31647300" lon="-16.7924766">
        <ele>1171.0000</ele>
        <time>2009-09-22T11:45:00Z</time>
      </trkpt>
      <trkpt lat="28.31624030" lon="-16.7921390">
        <ele>1172.0000</ele>
        <time>2009-09-22T11:45:15Z</time>
      </trkpt>
      <trkpt lat="28.31664460" lon="-16.7918071">
        <ele>1171.0000</ele>
        <time>2009-09-22T11:45:35Z</time>
      </trkpt>
      <trkpt lat="28.31621360" lon="-16.7906932">
        <ele>1174.0000</ele>
        <time>2009-09-22T11:46:18Z</time>
      </trkpt>
      <trkpt lat="28.31584730" lon="-16.7894363">
        <ele>1180.0000</ele>
        <time>2009-09-22T11:47:04Z</time>
      </trkpt>
      <trkpt lat="28.31523890" lon="-16.7886180">
        <ele>1184.0000</ele>
        <time>2009-09-22T11:47:42Z</time>
      </trkpt>
      <trkpt lat="28.31495660" lon="-16.7879810">
        <ele>1184.0000</ele>
        <time>2009-09-22T11:48:07Z</time>
      </trkpt>
      <trkpt lat="28.31488410" lon="-16.7878608">
        <ele>1186.0000</ele>
        <time>2009-09-22T11:48:12Z</time>
      </trkpt>
      <trkpt lat="28.31472200" lon="-16.7877197">
        <ele>1186.0000</ele>
        <time>2009-09-22T11:48:20Z</time>
      </trkpt>
      <trkpt lat="28.31369780" lon="-16.7875671">
        <ele>1189.0000</ele>
        <time>2009-09-22T11:49:02Z</time>
      </trkpt>
      <trkpt lat="28.31361380" lon="-16.7874774">
        <ele>1189.0000</ele>
        <time>2009-09-22T11:49:06Z</time>
      </trkpt>
      <trkpt lat="28.31352230" lon="-16.7873916">
        <ele>1189.0000</ele>
        <time>2009-09-22T11:49:11Z</time>
      </trkpt>
      <trkpt lat="28.31278220" lon="-16.7870903">
        <ele>1189.0000</ele>
        <time>2009-09-22T11:49:43Z</time>
      </trkpt>
      <trkpt lat="28.31245230" lon="-16.7874660">
        <ele>1189.0000</ele>
        <time>2009-09-22T11:50:01Z</time>
      </trkpt>
      <trkpt lat="28.31219670" lon="-16.7881793">
        <ele>1179.0000</ele>
        <time>2009-09-22T11:50:28Z</time>
      </trkpt>
      <trkpt lat="28.31176370" lon="-16.7887248">
        <ele>1178.0000</ele>
        <time>2009-09-22T11:50:54Z</time>
      </trkpt>
      <trkpt lat="28.31129260" lon="-16.7885665">
        <ele>1178.0000</ele>
        <time>2009-09-22T11:51:14Z</time>
      </trkpt>
      <trkpt lat="28.31102750" lon="-16.7886772">
        <ele>1186.0000</ele>
        <time>2009-09-22T11:51:25Z</time>
      </trkpt>
      <trkpt lat="28.30952830" lon="-16.7884750">
        <ele>1189.0000</ele>
        <time>2009-09-22T11:52:26Z</time>
      </trkpt>
      <trkpt lat="28.30909910" lon="-16.7884140">
        <ele>1189.0000</ele>
        <time>2009-09-22T11:52:43Z</time>
      </trkpt>
      <trkpt lat="28.30898280" lon="-16.7881393">
        <ele>1189.0000</ele>
        <time>2009-09-22T11:52:54Z</time>
      </trkpt>
      <trkpt lat="28.30818550" lon="-16.7882118">
        <ele>1195.0000</ele>
        <time>2009-09-22T11:53:26Z</time>
      </trkpt>
      <trkpt lat="28.30655860" lon="-16.7876472">
        <ele>1209.0000</ele>
        <time>2009-09-22T11:54:34Z</time>
      </trkpt>
      <trkpt lat="28.30559150" lon="-16.7872295">
        <ele>1209.0000</ele>
        <time>2009-09-22T11:55:15Z</time>
      </trkpt>
      <trkpt lat="28.30548280" lon="-16.7871971">
        <ele>1209.0000</ele>
        <time>2009-09-22T11:55:20Z</time>
      </trkpt>
      <trkpt lat="28.30501740" lon="-16.7870750">
        <ele>1222.0000</ele>
        <time>2009-09-22T11:55:39Z</time>
      </trkpt>
      <trkpt lat="28.30415720" lon="-16.7872829">
        <ele>1207.0000</ele>
        <time>2009-09-22T11:56:14Z</time>
      </trkpt>
      <trkpt lat="28.30282970" lon="-16.7871532">
        <ele>1213.0000</ele>
        <time>2009-09-22T11:57:08Z</time>
      </trkpt>
      <trkpt lat="28.30224030" lon="-16.7872447">
        <ele>1213.0000</ele>
        <time>2009-09-22T11:57:31Z</time>
      </trkpt>
      <trkpt lat="28.30175390" lon="-16.7870845">
        <ele>1217.0000</ele>
        <time>2009-09-22T11:57:52Z</time>
      </trkpt>
      <trkpt lat="28.30119510" lon="-16.7872028">
        <ele>1216.0000</ele>
        <time>2009-09-22T11:58:14Z</time>
      </trkpt>
      <trkpt lat="28.30069540" lon="-16.7871665">
        <ele>1216.0000</ele>
        <time>2009-09-22T11:58:34Z</time>
      </trkpt>
      <trkpt lat="28.30011170" lon="-16.7866649">
        <ele>1223.0000</ele>
        <time>2009-09-22T11:59:04Z</time>
      </trkpt>
      <trkpt lat="28.30002590" lon="-16.7866153">
        <ele>1223.0000</ele>
        <time>2009-09-22T11:59:08Z</time>
      </trkpt>
      <trkpt lat="28.29982370" lon="-16.7864933">
        <ele>1223.0000</ele>
        <time>2009-09-22T11:59:17Z</time>
      </trkpt>
      <trkpt lat="28.29906650" lon="-16.7863235">
        <ele>1226.0000</ele>
        <time>2009-09-22T11:59:48Z</time>
      </trkpt>
      <trkpt lat="28.29897490" lon="-16.7850914">
        <ele>1236.0000</ele>
        <time>2009-09-22T12:00:31Z</time>
      </trkpt>
      <trkpt lat="28.29879570" lon="-16.7846565">
        <ele>1236.0000</ele>
        <time>2009-09-22T12:00:48Z</time>
      </trkpt>
      <trkpt lat="28.29840460" lon="-16.7842102">
        <ele>1245.0000</ele>
        <time>2009-09-22T12:01:10Z</time>
      </trkpt>
      <trkpt lat="28.29901690" lon="-16.7833805">
        <ele>1266.0000</ele>
        <time>2009-09-22T12:01:48Z</time>
      </trkpt>
      <trkpt lat="28.29896730" lon="-16.7832241">
        <ele>1266.0000</ele>
        <time>2009-09-22T12:01:54Z</time>
      </trkpt>
      <trkpt lat="28.29829590" lon="-16.7831687">
        <ele>1260.0000</ele>
        <time>2009-09-22T12:02:21Z</time>
      </trkpt>
      <trkpt lat="28.29810330" lon="-16.7829895">
        <ele>1260.0000</ele>
        <time>2009-09-22T12:02:31Z</time>
      </trkpt>
      <trkpt lat="28.29783050" lon="-16.7829895">
        <ele>1256.0000</ele>
        <time>2009-09-22T12:02:42Z</time>
      </trkpt>
      <trkpt lat="28.29745100" lon="-16.7823600">
        <ele>1272.0000</ele>
        <time>2009-09-22T12:03:09Z</time>
      </trkpt>
      <trkpt lat="28.29719350" lon="-16.7828712">
        <ele>1272.0000</ele>
        <time>2009-09-22T12:03:30Z</time>
      </trkpt>
      <trkpt lat="28.29710570" lon="-16.7828578">
        <ele>1272.0000</ele>
        <time>2009-09-22T12:03:33Z</time>
      </trkpt>
      <trkpt lat="28.29680060" lon="-16.7827243">
        <ele>1271.0000</ele>
        <time>2009-09-22T12:03:46Z</time>
      </trkpt>
      <trkpt lat="28.29672430" lon="-16.7826499">
        <ele>1271.0000</ele>
        <time>2009-09-22T12:03:50Z</time>
      </trkpt>
      <trkpt lat="28.29652210" lon="-16.7821578">
        <ele>1271.0000</ele>
        <time>2009-09-22T12:04:10Z</time>
      </trkpt>
      <trkpt lat="28.29620740" lon="-16.7819538">
        <ele>1283.0000</ele>
        <time>2009-09-22T12:04:24Z</time>
      </trkpt>
      <trkpt lat="28.29616350" lon="-16.7817993">
        <ele>1283.0000</ele>
        <time>2009-09-22T12:04:30Z</time>
      </trkpt>
      <trkpt lat="28.29534720" lon="-16.7816314">
        <ele>1283.0000</ele>
        <time>2009-09-22T12:05:03Z</time>
      </trkpt>
      <trkpt lat="28.29560080" lon="-16.7811126">
        <ele>1293.0000</ele>
        <time>2009-09-22T12:05:24Z</time>
      </trkpt>
      <trkpt lat="28.29569810" lon="-16.7804527">
        <ele>1293.0000</ele>
        <time>2009-09-22T12:05:48Z</time>
      </trkpt>
      <trkpt lat="28.29613490" lon="-16.7796173">
        <ele>1298.0000</ele>
        <time>2009-09-22T12:06:22Z</time>
      </trkpt>
      <trkpt lat="28.29661560" lon="-16.7787857">
        <ele>1312.0000</ele>
        <time>2009-09-22T12:06:57Z</time>
      </trkpt>
      <trkpt lat="28.29688260" lon="-16.7793464">
        <ele>1312.0000</ele>
        <time>2009-09-22T12:07:19Z</time>
      </trkpt>
      <trkpt lat="28.29744330" lon="-16.7795925">
        <ele>1310.0000</ele>
        <time>2009-09-22T12:07:43Z</time>
      </trkpt>
      <trkpt lat="28.29799840" lon="-16.7793750">
        <ele>1320.0000</ele>
        <time>2009-09-22T12:08:07Z</time>
      </trkpt>
      <trkpt lat="28.29844090" lon="-16.7794628">
        <ele>1320.0000</ele>
        <time>2009-09-22T12:08:25Z</time>
      </trkpt>
      <trkpt lat="28.29876510" lon="-16.7798271">
        <ele>1315.0000</ele>
        <time>2009-09-22T12:08:43Z</time>
      </trkpt>
      <trkpt lat="28.29921910" lon="-16.7800502">
        <ele>1315.0000</ele>
        <time>2009-09-22T12:09:03Z</time>
      </trkpt>
      <trkpt lat="28.29946510" lon="-16.7799758">
        <ele>1315.0000</ele>
        <time>2009-09-22T12:09:13Z</time>
      </trkpt>
      <trkpt lat="28.30006980" lon="-16.7801551">
        <ele>1318.0000</ele>
        <time>2009-09-22T12:09:38Z</time>
      </trkpt>
      <trkpt lat="28.30022810" lon="-16.7802524">
        <ele>1318.0000</ele>
        <time>2009-09-22T12:09:45Z</time>
      </trkpt>
      <trkpt lat="28.30034440" lon="-16.7803516">
        <ele>1318.0000</ele>
        <time>2009-09-22T12:09:51Z</time>
      </trkpt>
      <trkpt lat="28.30049130" lon="-16.7806243">
        <ele>1314.0000</ele>
        <time>2009-09-22T12:10:02Z</time>
      </trkpt>
      <trkpt lat="28.30078690" lon="-16.7807044">
        <ele>1314.0000</ele>
        <time>2009-09-22T12:10:15Z</time>
      </trkpt>
      <trkpt lat="28.30123710" lon="-16.7810306">
        <ele>1314.0000</ele>
        <time>2009-09-22T12:10:36Z</time>
      </trkpt>
      <trkpt lat="28.30153460" lon="-16.7810077">
        <ele>1318.0000</ele>
        <time>2009-09-22T12:10:48Z</time>
      </trkpt>
      <trkpt lat="28.30167380" lon="-16.7807273">
        <ele>1318.0000</ele>
        <time>2009-09-22T12:10:59Z</time>
      </trkpt>
      <trkpt lat="28.30243680" lon="-16.7803783">
        <ele>1320.0000</ele>
        <time>2009-09-22T12:11:32Z</time>
      </trkpt>
      <trkpt lat="28.30248640" lon="-16.7803745">
        <ele>1320.0000</ele>
        <time>2009-09-22T12:11:34Z</time>
      </trkpt>
      <trkpt lat="28.30291550" lon="-16.7805461">
        <ele>1316.0000</ele>
        <time>2009-09-22T12:11:52Z</time>
      </trkpt>
      <trkpt lat="28.30306050" lon="-16.7804927">
        <ele>1305.0000</ele>
        <time>2009-09-22T12:11:58Z</time>
      </trkpt>
      <trkpt lat="28.30335610" lon="-16.7805843">
        <ele>1305.0000</ele>
        <time>2009-09-22T12:12:11Z</time>
      </trkpt>
      <trkpt lat="28.30355450" lon="-16.7803897">
        <ele>1317.0000</ele>
        <time>2009-09-22T12:12:21Z</time>
      </trkpt>
      <trkpt lat="28.30363270" lon="-16.7799377">
        <ele>1317.0000</ele>
        <time>2009-09-22T12:12:37Z</time>
      </trkpt>
      <trkpt lat="28.30389970" lon="-16.7796764">
        <ele>1311.0000</ele>
        <time>2009-09-22T12:12:52Z</time>
      </trkpt>
      <trkpt lat="28.30429450" lon="-16.7798671">
        <ele>1311.0000</ele>
        <time>2009-09-22T12:13:09Z</time>
      </trkpt>
      <trkpt lat="28.30509750" lon="-16.7796039">
        <ele>1302.0000</ele>
        <time>2009-09-22T12:13:42Z</time>
      </trkpt>
      <trkpt lat="28.30553620" lon="-16.7799034">
        <ele>1288.0000</ele>
        <time>2009-09-22T12:14:03Z</time>
      </trkpt>
      <trkpt lat="28.30550380" lon="-16.7795238">
        <ele>1297.0000</ele>
        <time>2009-09-22T12:14:16Z</time>
      </trkpt>
      <trkpt lat="28.30572890" lon="-16.7789478">
        <ele>1297.0000</ele>
        <time>2009-09-22T12:14:38Z</time>
      </trkpt>
      <trkpt lat="28.30610270" lon="-16.7783069">
        <ele>1307.0000</ele>
        <time>2009-09-22T12:15:05Z</time>
      </trkpt>
      <trkpt lat="28.30639640" lon="-16.7775478">
        <ele>1319.0000</ele>
        <time>2009-09-22T12:15:35Z</time>
      </trkpt>
      <trkpt lat="28.30701060" lon="-16.7773723">
        <ele>1319.0000</ele>
        <time>2009-09-22T12:16:00Z</time>
      </trkpt>
      <trkpt lat="28.30732340" lon="-16.7774944">
        <ele>1336.0000</ele>
        <time>2009-09-22T12:16:13Z</time>
      </trkpt>
      <trkpt lat="28.30731960" lon="-16.7773532">
        <ele>1336.0000</ele>
        <time>2009-09-22T12:16:18Z</time>
      </trkpt>
      <trkpt lat="28.30736730" lon="-16.7775821">
        <ele>1336.0000</ele>
        <time>2009-09-22T12:16:27Z</time>
      </trkpt>
      <trkpt lat="28.30785170" lon="-16.7782821">
        <ele>1326.0000</ele>
        <time>2009-09-22T12:16:58Z</time>
      </trkpt>
      <trkpt lat="28.30802910" lon="-16.7779998">
        <ele>1347.0000</ele>
        <time>2009-09-22T12:17:10Z</time>
      </trkpt>
      <trkpt lat="28.30807300" lon="-16.7780189">
        <ele>1347.0000</ele>
        <time>2009-09-22T12:17:12Z</time>
      </trkpt>
      <trkpt lat="28.30834000" lon="-16.7782974">
        <ele>1347.0000</ele>
        <time>2009-09-22T12:17:27Z</time>
      </trkpt>
      <trkpt lat="28.30912010" lon="-16.7785282">
        <ele>1320.0000</ele>
        <time>2009-09-22T12:17:59Z</time>
      </trkpt>
      <trkpt lat="28.31007760" lon="-16.7775077">
        <ele>1333.0000</ele>
        <time>2009-09-22T12:18:51Z</time>
      </trkpt>
      <trkpt lat="28.31072610" lon="-16.7775001">
        <ele>1295.0000</ele>
        <time>2009-09-22T12:19:17Z</time>
      </trkpt>
      <trkpt lat="28.31153480" lon="-16.7770252">
        <ele>1287.0000</ele>
        <time>2009-09-22T12:19:54Z</time>
      </trkpt>
      <trkpt lat="28.31156730" lon="-16.7767639">
        <ele>1287.0000</ele>
        <time>2009-09-22T12:20:03Z</time>
      </trkpt>
      <trkpt lat="28.31130790" lon="-16.7763957">
        <ele>1287.0000</ele>
        <time>2009-09-22T12:20:20Z</time>
      </trkpt>
      <trkpt lat="28.31139180" lon="-16.7762050">
        <ele>1296.0000</ele>
        <time>2009-09-22T12:20:27Z</time>
      </trkpt>
      <trkpt lat="28.31202880" lon="-16.7760276">
        <ele>1296.0000</ele>
        <time>2009-09-22T12:20:53Z</time>
      </trkpt>
      <trkpt lat="28.31211850" lon="-16.7756099">
        <ele>1285.0000</ele>
        <time>2009-09-22T12:21:09Z</time>
      </trkpt>
      <trkpt lat="28.31207270" lon="-16.7749805">
        <ele>1304.0000</ele>
        <time>2009-09-22T12:21:31Z</time>
      </trkpt>
      <trkpt lat="28.31186290" lon="-16.7742900">
        <ele>1321.0000</ele>
        <time>2009-09-22T12:21:57Z</time>
      </trkpt>
      <trkpt lat="28.31192010" lon="-16.7741928">
        <ele>1321.0000</ele>
        <time>2009-09-22T12:22:01Z</time>
      </trkpt>
      <trkpt lat="28.31216040" lon="-16.7740936">
        <ele>1323.0000</ele>
        <time>2009-09-22T12:22:11Z</time>
      </trkpt>
      <trkpt lat="28.31250570" lon="-16.7736034">
        <ele>1340.0000</ele>
        <time>2009-09-22T12:22:33Z</time>
      </trkpt>
      <trkpt lat="28.31266020" lon="-16.7735576">
        <ele>1340.0000</ele>
        <time>2009-09-22T12:22:39Z</time>
      </trkpt>
      <trkpt lat="28.31312170" lon="-16.7737541">
        <ele>1316.0000</ele>
        <time>2009-09-22T12:22:59Z</time>
      </trkpt>
      <trkpt lat="28.31339070" lon="-16.7737712">
        <ele>1316.0000</ele>
        <time>2009-09-22T12:23:10Z</time>
      </trkpt>
      <trkpt lat="28.31406400" lon="-16.7731513">
        <ele>1316.0000</ele>
        <time>2009-09-22T12:23:45Z</time>
      </trkpt>
      <trkpt lat="28.31490890" lon="-16.7726707">
        <ele>1313.0000</ele>
        <time>2009-09-22T12:24:23Z</time>
      </trkpt>
      <trkpt lat="28.31541060" lon="-16.7715740">
        <ele>1303.0000</ele>
        <time>2009-09-22T12:25:06Z</time>
      </trkpt>
      <trkpt lat="28.31550590" lon="-16.7715930">
        <ele>1288.0000</ele>
        <time>2009-09-22T12:25:10Z</time>
      </trkpt>
      <trkpt lat="28.31567760" lon="-16.7714576">
        <ele>1288.0000</ele>
        <time>2009-09-22T12:25:18Z</time>
      </trkpt>
      <trkpt lat="28.31585500" lon="-16.7713088">
        <ele>1288.0000</ele>
        <time>2009-09-22T12:25:27Z</time>
      </trkpt>
      <trkpt lat="28.31599610" lon="-16.7712650">
        <ele>1288.0000</ele>
        <time>2009-09-22T12:25:33Z</time>
      </trkpt>
      <trkpt lat="28.31659120" lon="-16.7711563">
        <ele>1270.0000</ele>
        <time>2009-09-22T12:25:57Z</time>
      </trkpt>
      <trkpt lat="28.31667510" lon="-16.7707633">
        <ele>1270.0000</ele>
        <time>2009-09-22T12:26:11Z</time>
      </trkpt>
      <trkpt lat="28.31702420" lon="-16.7705440">
        <ele>1270.0000</ele>
        <time>2009-09-22T12:26:27Z</time>
      </trkpt>
      <trkpt lat="28.31729120" lon="-16.7704811">
        <ele>1258.0000</ele>
        <time>2009-09-22T12:26:38Z</time>
      </trkpt>
      <trkpt lat="28.31732940" lon="-16.7704715">
        <ele>1258.0000</ele>
        <time>2009-09-22T12:26:40Z</time>
      </trkpt>
      <trkpt lat="28.31754490" lon="-16.7705726">
        <ele>1258.0000</ele>
        <time>2009-09-22T12:26:49Z</time>
      </trkpt>
      <trkpt lat="28.31762120" lon="-16.7707977">
        <ele>1258.0000</ele>
        <time>2009-09-22T12:26:58Z</time>
      </trkpt>
      <trkpt lat="28.31805610" lon="-16.7711143">
        <ele>1250.0000</ele>
        <time>2009-09-22T12:27:18Z</time>
      </trkpt>
      <trkpt lat="28.31829260" lon="-16.7714748">
        <ele>1250.0000</ele>
        <time>2009-09-22T12:27:34Z</time>
      </trkpt>
      <trkpt lat="28.31870650" lon="-16.7720432">
        <ele>1250.0000</ele>
        <time>2009-09-22T12:28:00Z</time>
      </trkpt>
      <trkpt lat="28.31918710" lon="-16.7725200">
        <ele>1243.0000</ele>
        <time>2009-09-22T12:28:26Z</time>
      </trkpt>
      <trkpt lat="28.31957240" lon="-16.7728042">
        <ele>1243.0000</ele>
        <time>2009-09-22T12:28:44Z</time>
      </trkpt>
      <trkpt lat="28.31983370" lon="-16.7732009">
        <ele>1223.0000</ele>
        <time>2009-09-22T12:29:02Z</time>
      </trkpt>
      <trkpt lat="28.32007020" lon="-16.7738914">
        <ele>1218.0000</ele>
        <time>2009-09-22T12:29:28Z</time>
      </trkpt>
      <trkpt lat="28.32032580" lon="-16.7740173">
        <ele>1218.0000</ele>
        <time>2009-09-22T12:29:39Z</time>
      </trkpt>
      <trkpt lat="28.32049940" lon="-16.7739009">
        <ele>1207.0000</ele>
        <time>2009-09-22T12:29:47Z</time>
      </trkpt>
      <trkpt lat="28.32050890" lon="-16.7739028">
        <ele>1207.0000</ele>
        <time>2009-09-22T12:29:47Z</time>
      </trkpt>
      <trkpt lat="28.32065010" lon="-16.7739868">
        <ele>1207.0000</ele>
        <time>2009-09-22T12:29:54Z</time>
      </trkpt>
      <trkpt lat="28.32068630" lon="-16.7740478">
        <ele>1207.0000</ele>
        <time>2009-09-22T12:29:56Z</time>
      </trkpt>
      <trkpt lat="28.32074730" lon="-16.7744350">
        <ele>1207.0000</ele>
        <time>2009-09-22T12:30:10Z</time>
      </trkpt>
      <trkpt lat="28.32109060" lon="-16.7745132">
        <ele>1207.0000</ele>
        <time>2009-09-22T12:30:24Z</time>
      </trkpt>
      <trkpt lat="28.32130240" lon="-16.7748260">
        <ele>1187.0000</ele>
        <time>2009-09-22T12:30:38Z</time>
      </trkpt>
      <trkpt lat="28.32186690" lon="-16.7752418">
        <ele>1187.0000</ele>
        <time>2009-09-22T12:31:05Z</time>
      </trkpt>
      <trkpt lat="28.32182880" lon="-16.7754364">
        <ele>1187.0000</ele>
        <time>2009-09-22T12:31:12Z</time>
      </trkpt>
      <trkpt lat="28.32228270" lon="-16.7757892">
        <ele>1179.0000</ele>
        <time>2009-09-22T12:31:34Z</time>
      </trkpt>
      <trkpt lat="28.32228660" lon="-16.7758731">
        <ele>1179.0000</ele>
        <time>2009-09-22T12:31:37Z</time>
      </trkpt>
      <trkpt lat="28.32224460" lon="-16.7761154">
        <ele>1179.0000</ele>
        <time>2009-09-22T12:31:46Z</time>
      </trkpt>
      <trkpt lat="28.32249450" lon="-16.7764892">
        <ele>1176.0000</ele>
        <time>2009-09-22T12:32:02Z</time>
      </trkpt>
      <trkpt lat="28.32234190" lon="-16.7767219">
        <ele>1176.0000</ele>
        <time>2009-09-22T12:32:12Z</time>
      </trkpt>
      <trkpt lat="28.32231900" lon="-16.7772388">
        <ele>1173.0000</ele>
        <time>2009-09-22T12:32:31Z</time>
      </trkpt>
      <trkpt lat="28.32243530" lon="-16.7777328">
        <ele>1173.0000</ele>
        <time>2009-09-22T12:32:49Z</time>
      </trkpt>
      <trkpt lat="28.32294460" lon="-16.7786884">
        <ele>1151.0000</ele>
        <time>2009-09-22T12:33:28Z</time>
      </trkpt>
      <trkpt lat="28.32288360" lon="-16.7791614">
        <ele>1162.0000</ele>
        <time>2009-09-22T12:33:45Z</time>
      </trkpt>
      <trkpt lat="28.32305710" lon="-16.7795162">
        <ele>1148.0000</ele>
        <time>2009-09-22T12:33:59Z</time>
      </trkpt>
      <trkpt lat="28.32310290" lon="-16.7795524">
        <ele>1148.0000</ele>
        <time>2009-09-22T12:34:01Z</time>
      </trkpt>
      <trkpt lat="28.32330510" lon="-16.7797031">
        <ele>1150.0000</ele>
        <time>2009-09-22T12:34:11Z</time>
      </trkpt>
      <trkpt lat="28.32384300" lon="-16.7804775">
        <ele>1138.0000</ele>
        <time>2009-09-22T12:34:46Z</time>
      </trkpt>
      <trkpt lat="28.32386580" lon="-16.7808952">
        <ele>1138.0000</ele>
        <time>2009-09-22T12:35:01Z</time>
      </trkpt>
      <trkpt lat="28.32413480" lon="-16.7815380">
        <ele>1135.0000</ele>
        <time>2009-09-22T12:35:26Z</time>
      </trkpt>
      <trkpt lat="28.32435790" lon="-16.7817821">
        <ele>1135.0000</ele>
        <time>2009-09-22T12:35:38Z</time>
      </trkpt>
      <trkpt lat="28.32431220" lon="-16.7819709">
        <ele>1135.0000</ele>
        <time>2009-09-22T12:35:45Z</time>
      </trkpt>
      <trkpt lat="28.32446470" lon="-16.7824268">
        <ele>1133.0000</ele>
        <time>2009-09-22T12:36:02Z</time>
      </trkpt>
      <trkpt lat="28.32439610" lon="-16.7831439">
        <ele>1133.0000</ele>
        <time>2009-09-22T12:36:28Z</time>
      </trkpt>
      <trkpt lat="28.32460590" lon="-16.7835311">
        <ele>1116.0000</ele>
        <time>2009-09-22T12:36:44Z</time>
      </trkpt>
      <trkpt lat="28.32458110" lon="-16.7836761">
        <ele>1133.0000</ele>
        <time>2009-09-22T12:36:49Z</time>
      </trkpt>
      <trkpt lat="28.32462880" lon="-16.7837486">
        <ele>1116.0000</ele>
        <time>2009-09-22T12:36:52Z</time>
      </trkpt>
      <trkpt lat="28.32468410" lon="-16.7837715">
        <ele>1115.0000</ele>
        <time>2009-09-22T12:36:54Z</time>
      </trkpt>
      <trkpt lat="28.32488050" lon="-16.7841033">
        <ele>1115.0000</ele>
        <time>2009-09-22T12:37:08Z</time>
      </trkpt>
      <trkpt lat="28.32473180" lon="-16.7842826">
        <ele>1115.0000</ele>
        <time>2009-09-22T12:37:17Z</time>
      </trkpt>
      <trkpt lat="28.32468220" lon="-16.7846050">
        <ele>1112.0000</ele>
        <time>2009-09-22T12:37:29Z</time>
      </trkpt>
      <trkpt lat="28.32473560" lon="-16.7847881">
        <ele>1112.0000</ele>
        <time>2009-09-22T12:37:35Z</time>
      </trkpt>
      <trkpt lat="28.32452200" lon="-16.7854442">
        <ele>1120.0000</ele>
        <time>2009-09-22T12:38:00Z</time>
      </trkpt>
      <trkpt lat="28.32464020" lon="-16.7853889">
        <ele>1112.0000</ele>
        <time>2009-09-22T12:38:05Z</time>
      </trkpt>
      <trkpt lat="28.32483480" lon="-16.7853412">
        <ele>1112.0000</ele>
        <time>2009-09-22T12:38:13Z</time>
      </trkpt>
      <trkpt lat="28.32513990" lon="-16.7854938">
        <ele>1110.0000</ele>
        <time>2009-09-22T12:38:27Z</time>
      </trkpt>
      <trkpt lat="28.32540700" lon="-16.7858505">
        <ele>1110.0000</ele>
        <time>2009-09-22T12:38:43Z</time>
      </trkpt>
      <trkpt lat="28.32531730" lon="-16.7872180">
        <ele>1116.0000</ele>
        <time>2009-09-22T12:39:31Z</time>
      </trkpt>
      <trkpt lat="28.32484810" lon="-16.7892074">
        <ele>1125.0000</ele>
        <time>2009-09-22T12:40:44Z</time>
      </trkpt>
      <trkpt lat="28.32400890" lon="-16.7889804">
        <ele>1136.0000</ele>
        <time>2009-09-22T12:41:18Z</time>
      </trkpt>
      <trkpt lat="28.32349200" lon="-16.7890052">
        <ele>1152.0000</ele>
        <time>2009-09-22T12:41:39Z</time>
      </trkpt>
      <trkpt lat="28.32317920" lon="-16.7888450">
        <ele>1152.0000</ele>
        <time>2009-09-22T12:41:53Z</time>
      </trkpt>
      <trkpt lat="28.32291600" lon="-16.7885093">
        <ele>1170.0000</ele>
        <time>2009-09-22T12:42:09Z</time>
      </trkpt>
      <trkpt lat="28.32302850" lon="-16.7884044">
        <ele>1153.0000</ele>
        <time>2009-09-22T12:42:15Z</time>
      </trkpt>
      <trkpt lat="28.32287970" lon="-16.7884292">
        <ele>1170.0000</ele>
        <time>2009-09-22T12:42:21Z</time>
      </trkpt>
      <trkpt lat="28.32265850" lon="-16.7879562">
        <ele>1170.0000</ele>
        <time>2009-09-22T12:42:39Z</time>
      </trkpt>
      <trkpt lat="28.32269090" lon="-16.7874641">
        <ele>1164.0000</ele>
        <time>2009-09-22T12:42:57Z</time>
      </trkpt>
      <trkpt lat="28.32227890" lon="-16.7870273">
        <ele>1157.0000</ele>
        <time>2009-09-22T12:43:19Z</time>
      </trkpt>
      <trkpt lat="28.32175820" lon="-16.7869949">
        <ele>1180.0000</ele>
        <time>2009-09-22T12:43:40Z</time>
      </trkpt>
      <trkpt lat="28.32145690" lon="-16.7871170">
        <ele>1183.0000</ele>
        <time>2009-09-22T12:43:53Z</time>
      </trkpt>
      <trkpt lat="28.32073780" lon="-16.7872257">
        <ele>1185.0000</ele>
        <time>2009-09-22T12:44:22Z</time>
      </trkpt>
      <trkpt lat="28.32024760" lon="-16.7871036">
        <ele>1186.0000</ele>
        <time>2009-09-22T12:44:42Z</time>
      </trkpt>
      <trkpt lat="28.31961820" lon="-16.7874412">
        <ele>1186.0000</ele>
        <time>2009-09-22T12:45:10Z</time>
      </trkpt>
      <trkpt lat="28.31934160" lon="-16.7871971">
        <ele>1186.0000</ele>
        <time>2009-09-22T12:45:24Z</time>
      </trkpt>
      <trkpt lat="28.31902880" lon="-16.7869548">
        <ele>1187.0000</ele>
        <time>2009-09-22T12:45:39Z</time>
      </trkpt>
      <trkpt lat="28.31857290" lon="-16.7870349">
        <ele>1190.0000</ele>
        <time>2009-09-22T12:45:58Z</time>
      </trkpt>
      <trkpt lat="28.31822010" lon="-16.7872352">
        <ele>1188.0000</ele>
        <time>2009-09-22T12:46:14Z</time>
      </trkpt>
      <trkpt lat="28.31816860" lon="-16.7872428">
        <ele>1188.0000</ele>
        <time>2009-09-22T12:46:16Z</time>
      </trkpt>
      <trkpt lat="28.31807130" lon="-16.7872619">
        <ele>1188.0000</ele>
        <time>2009-09-22T12:46:20Z</time>
      </trkpt>
      <trkpt lat="28.31797980" lon="-16.7872505">
        <ele>1188.0000</ele>
        <time>2009-09-22T12:46:23Z</time>
      </trkpt>
      <trkpt lat="28.31756010" lon="-16.7869510">
        <ele>1206.0000</ele>
        <time>2009-09-22T12:46:43Z</time>
      </trkpt>
      <trkpt lat="28.31740950" lon="-16.7874488">
        <ele>1196.0000</ele>
        <time>2009-09-22T12:47:02Z</time>
      </trkpt>
      <trkpt lat="28.31708140" lon="-16.7876930">
        <ele>1196.0000</ele>
        <time>2009-09-22T12:47:17Z</time>
      </trkpt>
      <trkpt lat="28.31584730" lon="-16.7876129">
        <ele>1190.0000</ele>
        <time>2009-09-22T12:48:07Z</time>
      </trkpt>
      <trkpt lat="28.31489560" lon="-16.7877445">
        <ele>1186.0000</ele>
        <time>2009-09-22T12:48:45Z</time>
      </trkpt>
      <trkpt lat="28.31489180" lon="-16.7878360">
        <ele>1186.0000</ele>
        <time>2009-09-22T12:48:48Z</time>
      </trkpt>
      <trkpt lat="28.31497190" lon="-16.7879676">
        <ele>1184.0000</ele>
        <time>2009-09-22T12:48:54Z</time>
      </trkpt>
      <trkpt lat="28.31501000" lon="-16.7880477">
        <ele>1184.0000</ele>
        <time>2009-09-22T12:48:57Z</time>
      </trkpt>
      <trkpt lat="28.31527900" lon="-16.7886409">
        <ele>1184.0000</ele>
        <time>2009-09-22T12:49:21Z</time>
      </trkpt>
      <trkpt lat="28.31585310" lon="-16.7894096">
        <ele>1180.0000</ele>
        <time>2009-09-22T12:49:56Z</time>
      </trkpt>
      <trkpt lat="28.31588360" lon="-16.7895050">
        <ele>1180.0000</ele>
        <time>2009-09-22T12:50:00Z</time>
      </trkpt>
      <trkpt lat="28.31623070" lon="-16.7906856">
        <ele>1174.0000</ele>
        <time>2009-09-22T12:50:44Z</time>
      </trkpt>
      <trkpt lat="28.31667900" lon="-16.7918281">
        <ele>1171.0000</ele>
        <time>2009-09-22T12:51:28Z</time>
      </trkpt>
      <trkpt lat="28.31630700" lon="-16.7921390">
        <ele>1171.0000</ele>
        <time>2009-09-22T12:51:46Z</time>
      </trkpt>
      <trkpt lat="28.31651870" lon="-16.7924423">
        <ele>1171.0000</ele>
        <time>2009-09-22T12:52:00Z</time>
      </trkpt>
      <trkpt lat="28.31654730" lon="-16.7928276">
        <ele>1171.0000</ele>
        <time>2009-09-22T12:52:14Z</time>
      </trkpt>
      <trkpt lat="28.31703180" lon="-16.7928524">
        <ele>1171.0000</ele>
        <time>2009-09-22T12:52:33Z</time>
      </trkpt>
    </trkseg>
  </trk>
</gpx>

